This is the latest recevied weather packets stored in our database for station/object DL2BWO-13. If no packets are shown the sender has not sent any weather packets the latest 10 day(s).
| Time | Temp. | Humidity | Pressure | Rain* | Wind** | Luminosity | Snow |
|---|---|---|---|---|---|---|---|
| 1777757416 | 15.56° C | 56% | 742.9 hPa | 0 mm | - | - | - |
| 1777756481 | 15.56° C | 55% | 743.2 hPa | 0 mm | - | - | - |
| 1777752737 | 17.78° C | 51% | 745.3 hPa | 0 mm | - | - | - |
| 1777751801 | 17.78° C | 51% | 745.5 hPa | 0 mm | - | - | - |
| 1777750865 | 17.78° C | 51% | 745.7 hPa | 0 mm | - | - | - |
| 1777749929 | 18.89° C | 49% | 746.5 hPa | 0 mm | - | - | - |
| 1777748993 | 19.44° C | 48% | 747.5 hPa | 0 mm | - | - | - |
| 1777748057 | 20.56° C | 46% | 748.9 hPa | 0 mm | - | - | - |
| 1777746185 | 22.78° C | 43% | 751.3 hPa | 0 mm | - | - | - |
| 1777745249 | 23.89° C | 42% | 752.2 hPa | 0 mm | - | - | - |
| 1777744313 | 25° C | 42% | 753.3 hPa | 0 mm | - | - | - |
| 1777743377 | 26.11° C | 42% | 754.9 hPa | 0 mm | - | - | - |
| 1777742441 | 27.78° C | 43% | 756.9 hPa | 0 mm | - | - | - |
| 1777741505 | 28.33° C | 41% | 757.2 hPa | 0 mm | - | - | - |
| 1777740569 | 28.33° C | 40% | 757.7 hPa | 0 mm | - | - | - |
| 1777739633 | 28.33° C | 38% | 757.8 hPa | 0 mm | - | - | - |
| 1777738697 | 28.33° C | 39% | 757.5 hPa | 0 mm | - | - | - |
| 1777737761 | 28.33° C | 38% | 757.8 hPa | 0 mm | - | - | - |
| 1777736825 | 28.89° C | 38% | 758.1 hPa | 0 mm | - | - | - |
| 1777735889 | 28.89° C | 36% | 758.4 hPa | 0 mm | - | - | - |
| 1777734954 | 29.44° C | 34% | 758.5 hPa | 0 mm | - | - | - |
| 1777734017 | 30° C | 36% | 759.1 hPa | 0 mm | - | - | - |
| 1777732146 | 30° C | 37% | 759.3 hPa | 0 mm | - | - | - |
| 1777730274 | 30° C | 37% | 759.4 hPa | 0 mm | - | - | - |
| 1777729338 | 30° C | 38% | 759.5 hPa | 0 mm | - | - | - |
* Rain latest hour (hover to see other rain measurements)
** Current wind speed in m/s (hover to see current wind gust speed)